sensor_id;sensor_type;location;lat;lon;timestamp;pressure;altitude;pressure_sealevel;temperature;humidity
8573;BME280;4324;42.012;24.872;2023-12-20T00:01:00;99371.75;;;5.10;93.76
8573;BME280;4324;42.012;24.872;2023-12-20T00:03:27;99362.66;;;5.14;93.94
8573;BME280;4324;42.012;24.872;2023-12-20T00:05:55;99358.84;;;5.18;93.74
8573;BME280;4324;42.012;24.872;2023-12-20T00:08:22;99362.78;;;5.24;93.90
8573;BME280;4324;42.012;24.872;2023-12-20T00:10:49;99365.63;;;5.32;93.82
8573;BME280;4324;42.012;24.872;2023-12-20T00:13:16;99338.31;;;5.23;93.78
8573;BME280;4324;42.012;24.872;2023-12-20T00:15:43;99353.22;;;5.34;94.30
8573;BME280;4324;42.012;24.872;2023-12-20T00:18:10;99337.69;;;5.31;95.10
8573;BME280;4324;42.012;24.872;2023-12-20T00:20:37;99348.50;;;5.38;95.64
8573;BME280;4324;42.012;24.872;2023-12-20T00:23:05;99350.78;;;5.42;95.74
8573;BME280;4324;42.012;24.872;2023-12-20T00:25:33;99312.09;;;5.12;95.68
8573;BME280;4324;42.012;24.872;2023-12-20T00:28:00;99345.59;;;5.20;95.65
8573;BME280;4324;42.012;24.872;2023-12-20T00:30:27;99346.91;;;5.14;96.00
8573;BME280;4324;42.012;24.872;2023-12-20T00:32:55;99350.75;;;5.10;96.28
8573;BME280;4324;42.012;24.872;2023-12-20T00:35:22;99341.00;;;5.01;96.39
8573;BME280;4324;42.012;24.872;2023-12-20T00:37:49;99331.81;;;4.95;96.14
8573;BME280;4324;42.012;24.872;2023-12-20T00:40:17;99343.63;;;5.01;96.46
8573;BME280;4324;42.012;24.872;2023-12-20T00:42:44;99335.41;;;4.94;96.42
8573;BME280;4324;42.012;24.872;2023-12-20T00:45:12;99323.13;;;4.83;96.73
8573;BME280;4324;42.012;24.872;2023-12-20T00:47:40;99334.19;;;4.98;96.51
8573;BME280;4324;42.012;24.872;2023-12-20T00:50:08;99336.00;;;4.98;96.93
8573;BME280;4324;42.012;24.872;2023-12-20T00:52:35;99332.63;;;4.96;96.78
8573;BME280;4324;42.012;24.872;2023-12-20T00:55:03;99315.44;;;5.03;97.92
8573;BME280;4324;42.012;24.872;2023-12-20T00:57:31;99302.09;;;5.06;97.74
8573;BME280;4324;42.012;24.872;2023-12-20T00:59:59;99298.00;;;5.13;97.49
8573;BME280;4324;42.012;24.872;2023-12-20T01:02:26;99307.50;;;5.25;98.40
8573;BME280;4324;42.012;24.872;2023-12-20T01:04:53;99298.66;;;5.26;98.32
8573;BME280;4324;42.012;24.872;2023-12-20T01:07:20;99298.56;;;5.28;97.65
8573;BME280;4324;42.012;24.872;2023-12-20T01:09:47;99293.41;;;5.26;97.45
8573;BME280;4324;42.012;24.872;2023-12-20T01:12:14;99295.78;;;5.29;97.64
8573;BME280;4324;42.012;24.872;2023-12-20T01:14:43;99291.94;;;5.33;97.46
8573;BME280;4324;42.012;24.872;2023-12-20T01:17:09;99286.66;;;5.45;97.96
8573;BME280;4324;42.012;24.872;2023-12-20T01:19:36;99278.66;;;5.46;97.44
8573;BME280;4324;42.012;24.872;2023-12-20T01:22:04;99283.28;;;5.54;97.47
8573;BME280;4324;42.012;24.872;2023-12-20T01:24:31;99278.47;;;5.59;96.37
8573;BME280;4324;42.012;24.872;2023-12-20T01:26:58;99271.56;;;5.58;96.21
8573;BME280;4324;42.012;24.872;2023-12-20T01:29:25;99181.34;;;5.06;95.85
8573;BME280;4324;42.012;24.872;2023-12-20T01:31:53;99275.47;;;5.64;96.42
8573;BME280;4324;42.012;24.872;2023-12-20T01:34:20;99273.69;;;5.64;96.64
8573;BME280;4324;42.012;24.872;2023-12-20T01:36:47;99252.19;;;5.59;96.96
8573;BME280;4324;42.012;24.872;2023-12-20T01:39:13;99255.16;;;5.66;96.75
8573;BME280;4324;42.012;24.872;2023-12-20T01:41:40;99247.13;;;5.67;96.45
8573;BME280;4324;42.012;24.872;2023-12-20T01:44:07;99255.47;;;5.72;96.03
8573;BME280;4324;42.012;24.872;2023-12-20T01:46:34;99245.94;;;5.71;96.03
8573;BME280;4324;42.012;24.872;2023-12-20T01:49:02;99243.31;;;5.71;95.92
8573;BME280;4324;42.012;24.872;2023-12-20T01:51:30;99247.44;;;5.74;95.82
8573;BME280;4324;42.012;24.872;2023-12-20T01:53:57;99232.22;;;5.68;96.13
8573;BME280;4324;42.012;24.872;2023-12-20T01:56:25;99233.88;;;5.69;96.48
8573;BME280;4324;42.012;24.872;2023-12-20T01:58:53;99242.09;;;5.75;96.74
8573;BME280;4324;42.012;24.872;2023-12-20T02:01:21;99224.06;;;5.71;96.86
8573;BME280;4324;42.012;24.872;2023-12-20T02:03:48;99211.31;;;5.66;96.82
8573;BME280;4324;42.012;24.872;2023-12-20T02:06:16;99212.53;;;5.62;96.82
8573;BME280;4324;42.012;24.872;2023-12-20T02:08:44;99221.56;;;5.69;96.48
8573;BME280;4324;42.012;24.872;2023-12-20T02:11:11;99218.22;;;5.67;95.25
8573;BME280;4324;42.012;24.872;2023-12-20T02:13:38;99217.28;;;5.68;94.98
8573;BME280;4324;42.012;24.872;2023-12-20T02:16:05;99208.84;;;5.65;95.05
8573;BME280;4324;42.012;24.872;2023-12-20T02:18:33;99206.06;;;5.66;95.21
8573;BME280;4324;42.012;24.872;2023-12-20T02:21:00;99203.00;;;5.61;94.69
8573;BME280;4324;42.012;24.872;2023-12-20T02:23:28;99198.44;;;5.63;95.42
8573;BME280;4324;42.012;24.872;2023-12-20T02:25:55;99197.22;;;5.67;95.41
8573;BME280;4324;42.012;24.872;2023-12-20T02:28:22;99193.91;;;5.65;95.85
8573;BME280;4324;42.012;24.872;2023-12-20T02:30:49;99170.59;;;5.51;95.62
8573;BME280;4324;42.012;24.872;2023-12-20T02:33:16;99204.25;;;5.67;95.10
8573;BME280;4324;42.012;24.872;2023-12-20T02:35:43;99188.59;;;5.55;95.12
8573;BME280;4324;42.012;24.872;2023-12-20T02:38:10;99200.38;;;5.61;94.86
8573;BME280;4324;42.012;24.872;2023-12-20T02:40:38;99195.81;;;5.63;94.35
8573;BME280;4324;42.012;24.872;2023-12-20T02:43:05;99178.06;;;5.55;94.38
8573;BME280;4324;42.012;24.872;2023-12-20T02:45:32;99142.03;;;5.37;94.68
8573;BME280;4324;42.012;24.872;2023-12-20T02:47:59;99177.00;;;5.58;94.22
8573;BME280;4324;42.012;24.872;2023-12-20T02:50:26;99190.69;;;5.62;94.25
8573;BME280;4324;42.012;24.872;2023-12-20T02:52:53;99159.19;;;5.41;95.03
8573;BME280;4324;42.012;24.872;2023-12-20T02:55:20;99186.53;;;5.59;95.40
8573;BME280;4324;42.012;24.872;2023-12-20T02:57:48;99180.84;;;5.54;95.01
8573;BME280;4324;42.012;24.872;2023-12-20T03:00:15;99148.69;;;5.41;94.95
8573;BME280;4324;42.012;24.872;2023-12-20T03:02:42;99167.97;;;5.51;95.50
8573;BME280;4324;42.012;24.872;2023-12-20T03:05:08;99168.94;;;5.50;95.00
8573;BME280;4324;42.012;24.872;2023-12-20T03:07:36;99172.53;;;5.49;95.51
8573;BME280;4324;42.012;24.872;2023-12-20T03:10:05;99168.22;;;5.48;96.46
8573;BME280;4324;42.012;24.872;2023-12-20T03:12:33;99169.19;;;5.47;96.36
8573;BME280;4324;42.012;24.872;2023-12-20T03:15:01;99160.16;;;5.40;96.45
8573;BME280;4324;42.012;24.872;2023-12-20T03:17:28;99178.28;;;5.43;96.42
8573;BME280;4324;42.012;24.872;2023-12-20T03:19:55;99162.78;;;5.40;96.55
8573;BME280;4324;42.012;24.872;2023-12-20T03:22:22;99165.66;;;5.37;96.65
8573;BME280;4324;42.012;24.872;2023-12-20T03:24:49;99142.81;;;5.27;96.47
8573;BME280;4324;42.012;24.872;2023-12-20T03:27:15;99159.44;;;5.38;96.76
8573;BME280;4324;42.012;24.872;2023-12-20T03:29:42;99162.22;;;5.36;97.01
8573;BME280;4324;42.012;24.872;2023-12-20T03:32:10;99155.31;;;5.35;96.69
8573;BME280;4324;42.012;24.872;2023-12-20T03:34:37;99141.72;;;5.30;96.54
8573;BME280;4324;42.012;24.872;2023-12-20T03:37:04;99146.28;;;5.28;96.35
8573;BME280;4324;42.012;24.872;2023-12-20T03:39:31;99146.38;;;5.26;96.78
8573;BME280;4324;42.012;24.872;2023-12-20T03:41:58;99136.16;;;5.23;96.60
8573;BME280;4324;42.012;24.872;2023-12-20T03:44:25;99132.56;;;5.24;95.93
8573;BME280;4324;42.012;24.872;2023-12-20T03:46:52;99134.47;;;5.22;95.98
8573;BME280;4324;42.012;24.872;2023-12-20T03:49:20;99125.19;;;5.18;95.69
8573;BME280;4324;42.012;24.872;2023-12-20T03:51:54;99143.66;;;5.28;96.01
8573;BME280;4324;42.012;24.872;2023-12-20T03:54:21;99142.09;;;5.25;96.15
8573;BME280;4324;42.012;24.872;2023-12-20T03:56:47;99139.03;;;5.20;95.67
8573;BME280;4324;42.012;24.872;2023-12-20T03:59:14;99099.56;;;5.01;95.95
8573;BME280;4324;42.012;24.872;2023-12-20T04:01:43;99136.16;;;5.23;95.74
8573;BME280;4324;42.012;24.872;2023-12-20T04:04:10;99099.81;;;4.98;95.04
8573;BME280;4324;42.012;24.872;2023-12-20T04:06:38;99130.34;;;5.20;95.28
8573;BME280;4324;42.012;24.872;2023-12-20T04:09:05;99122.38;;;5.10;94.95
8573;BME280;4324;42.012;24.872;2023-12-20T04:11:33;99126.66;;;5.11;94.85
8573;BME280;4324;42.012;24.872;2023-12-20T04:13:59;99138.56;;;5.15;95.07
8573;BME280;4324;42.012;24.872;2023-12-20T04:16:27;99129.03;;;5.14;95.56
8573;BME280;4324;42.012;24.872;2023-12-20T04:18:56;99130.13;;;5.12;96.46
8573;BME280;4324;42.012;24.872;2023-12-20T04:21:23;99108.75;;;4.95;96.02
8573;BME280;4324;42.012;24.872;2023-12-20T04:23:51;99111.22;;;4.97;96.06
8573;BME280;4324;42.012;24.872;2023-12-20T04:26:20;99127.78;;;5.08;95.85
8573;BME280;4324;42.012;24.872;2023-12-20T04:28:46;99122.63;;;5.07;95.70
8573;BME280;4324;42.012;24.872;2023-12-20T04:31:13;99128.59;;;5.09;95.79
8573;BME280;4324;42.012;24.872;2023-12-20T04:33:40;99119.75;;;5.10;96.36
8573;BME280;4324;42.012;24.872;2023-12-20T04:36:08;99122.78;;;5.05;96.74
8573;BME280;4324;42.012;24.872;2023-12-20T04:38:35;99125.16;;;5.08;96.53
8573;BME280;4324;42.012;24.872;2023-12-20T04:41:04;99108.13;;;5.03;96.32
8573;BME280;4324;42.012;24.872;2023-12-20T04:43:44;99114.78;;;5.07;96.87
8573;BME280;4324;42.012;24.872;2023-12-20T04:46:25;99018.25;;;4.48;96.62
8573;BME280;4324;42.012;24.872;2023-12-20T04:48:55;99084.56;;;4.92;97.01
8573;BME280;4324;42.012;24.872;2023-12-20T04:51:29;99014.44;;;4.52;97.88
8573;BME280;4324;42.012;24.872;2023-12-20T04:53:56;99107.63;;;5.09;98.56
8573;BME280;4324;42.012;24.872;2023-12-20T04:56:24;99105.94;;;5.08;98.44
8573;BME280;4324;42.012;24.872;2023-12-20T04:58:51;99100.13;;;5.04;98.48
8573;BME280;4324;42.012;24.872;2023-12-20T05:01:18;99082.66;;;4.94;98.50
8573;BME280;4324;42.012;24.872;2023-12-20T05:03:46;99064.06;;;4.85;98.25
8573;BME280;4324;42.012;24.872;2023-12-20T05:06:16;99092.75;;;4.98;98.65
8573;BME280;4324;42.012;24.872;2023-12-20T05:08:43;99076.44;;;4.95;98.96
8573;BME280;4324;42.012;24.872;2023-12-20T05:11:09;99088.34;;;4.99;99.05
8573;BME280;4324;42.012;24.872;2023-12-20T05:13:40;99089.31;;;4.98;99.00
8573;BME280;4324;42.012;24.872;2023-12-20T05:16:07;99077.59;;;4.81;97.72
8573;BME280;4324;42.012;24.872;2023-12-20T05:18:34;99087.84;;;4.52;97.17
8573;BME280;4324;42.012;24.872;2023-12-20T05:21:01;99083.50;;;4.30;98.02
8573;BME280;4324;42.012;24.872;2023-12-20T05:23:28;99065.84;;;4.00;98.41
8573;BME280;4324;42.012;24.872;2023-12-20T05:25:55;99088.59;;;3.99;98.59
8573;BME280;4324;42.012;24.872;2023-12-20T05:28:22;99090.88;;;3.93;99.02
8573;BME280;4324;42.012;24.872;2023-12-20T05:30:50;99085.41;;;3.84;99.98
8573;BME280;4324;42.012;24.872;2023-12-20T05:33:17;99083.03;;;3.81;100.00
8573;BME280;4324;42.012;24.872;2023-12-20T05:35:44;99080.91;;;3.86;100.00
8573;BME280;4324;42.012;24.872;2023-12-20T05:38:11;99077.78;;;3.93;100.00
8573;BME280;4324;42.012;24.872;2023-12-20T05:40:38;99068.59;;;3.98;100.00
8573;BME280;4324;42.012;24.872;2023-12-20T05:43:05;99072.50;;;4.04;100.00
8573;BME280;4324;42.012;24.872;2023-12-20T05:45:32;99057.66;;;4.04;100.00
8573;BME280;4324;42.012;24.872;2023-12-20T05:48:00;99054.41;;;4.12;100.00
8573;BME280;4324;42.012;24.872;2023-12-20T05:50:27;99041.53;;;4.09;100.00
8573;BME280;4324;42.012;24.872;2023-12-20T05:52:54;98996.59;;;3.81;100.00
8573;BME280;4324;42.012;24.872;2023-12-20T05:55:21;99057.22;;;4.20;100.00
8573;BME280;4324;42.012;24.872;2023-12-20T05:57:48;99050.34;;;4.19;100.00
8573;BME280;4324;42.012;24.872;2023-12-20T06:00:16;99059.22;;;4.28;100.00
8573;BME280;4324;42.012;24.872;2023-12-20T06:02:43;99052.53;;;4.35;100.00
8573;BME280;4324;42.012;24.872;2023-12-20T06:05:12;99044.03;;;4.43;100.00
8573;BME280;4324;42.012;24.872;2023-12-20T06:07:38;99036.50;;;4.49;100.00
8573;BME280;4324;42.012;24.872;2023-12-20T06:10:06;99052.28;;;4.59;100.00
8573;BME280;4324;42.012;24.872;2023-12-20T06:12:33;99057.53;;;4.59;100.00
8573;BME280;4324;42.012;24.872;2023-12-20T06:15:02;99036.81;;;4.35;100.00
8573;BME280;4324;42.012;24.872;2023-12-20T06:17:28;99052.34;;;4.27;100.00
8573;BME280;4324;42.012;24.872;2023-12-20T06:19:57;99052.47;;;4.14;100.00
8573;BME280;4324;42.012;24.872;2023-12-20T06:22:25;99020.16;;;3.81;100.00
8573;BME280;4324;42.012;24.872;2023-12-20T06:24:52;99053.28;;;3.82;100.00
8573;BME280;4324;42.012;24.872;2023-12-20T06:27:19;99050.69;;;3.71;100.00
8573;BME280;4324;42.012;24.872;2023-12-20T06:29:45;99050.09;;;3.68;100.00
8573;BME280;4324;42.012;24.872;2023-12-20T06:32:12;99062.59;;;3.75;100.00
8573;BME280;4324;42.012;24.872;2023-12-20T06:34:39;99053.53;;;3.68;100.00
8573;BME280;4324;42.012;24.872;2023-12-20T06:37:06;99044.50;;;3.61;100.00
8573;BME280;4324;42.012;24.872;2023-12-20T06:39:35;99058.28;;;3.74;100.00
8573;BME280;4324;42.012;24.872;2023-12-20T06:42:02;99050.69;;;3.71;100.00
8573;BME280;4324;42.012;24.872;2023-12-20T06:44:29;99042.56;;;3.74;100.00
8573;BME280;4324;42.012;24.872;2023-12-20T06:46:57;98991.16;;;3.62;100.00
8573;BME280;4324;42.012;24.872;2023-12-20T06:49:25;99044.41;;;4.06;100.00
8573;BME280;4324;42.012;24.872;2023-12-20T06:51:52;99050.81;;;4.13;100.00
8573;BME280;4324;42.012;24.872;2023-12-20T06:54:19;99029.28;;;4.09;100.00
8573;BME280;4324;42.012;24.872;2023-12-20T06:56:47;99029.59;;;4.16;100.00
8573;BME280;4324;42.012;24.872;2023-12-20T06:59:14;99042.16;;;4.33;100.00
8573;BME280;4324;42.012;24.872;2023-12-20T07:01:41;99018.94;;;4.29;100.00
8573;BME280;4324;42.012;24.872;2023-12-20T07:04:08;99025.94;;;4.40;100.00
8573;BME280;4324;42.012;24.872;2023-12-20T07:06:35;98980.25;;;4.21;100.00
8573;BME280;4324;42.012;24.872;2023-12-20T07:09:02;98913.25;;;3.86;100.00
8573;BME280;4324;42.012;24.872;2023-12-20T07:11:29;99030.56;;;4.68;100.00
8573;BME280;4324;42.012;24.872;2023-12-20T07:13:58;99025.94;;;4.81;100.00
8573;BME280;4324;42.012;24.872;2023-12-20T07:16:25;99021.06;;;4.98;100.00
8573;BME280;4324;42.012;24.872;2023-12-20T07:18:52;99016.72;;;5.08;100.00
8573;BME280;4324;42.012;24.872;2023-12-20T07:21:19;98991.81;;;5.02;100.00
8573;BME280;4324;42.012;24.872;2023-12-20T07:23:47;99001.00;;;5.18;100.00
8573;BME280;4324;42.012;24.872;2023-12-20T07:26:15;99017.47;;;5.29;100.00
8573;BME280;4324;42.012;24.872;2023-12-20T07:28:42;98988.59;;;5.20;100.00
8573;BME280;4324;42.012;24.872;2023-12-20T07:31:10;99010.47;;;5.40;100.00
8573;BME280;4324;42.012;24.872;2023-12-20T07:33:38;99007.84;;;5.40;100.00
8573;BME280;4324;42.012;24.872;2023-12-20T07:36:05;99011.63;;;5.47;100.00
8573;BME280;4324;42.012;24.872;2023-12-20T07:38:32;98987.81;;;5.39;100.00
8573;BME280;4324;42.012;24.872;2023-12-20T07:41:00;99011.78;;;5.55;100.00
8573;BME280;4324;42.012;24.872;2023-12-20T07:43:27;98999.72;;;5.52;100.00
8573;BME280;4324;42.012;24.872;2023-12-20T07:45:54;98972.22;;;5.47;100.00
8573;BME280;4324;42.012;24.872;2023-12-20T07:48:22;98988.41;;;5.52;100.00
8573;BME280;4324;42.012;24.872;2023-12-20T07:50:49;98986.91;;;5.59;100.00
8573;BME280;4324;42.012;24.872;2023-12-20T07:53:16;98989.16;;;5.64;100.00
8573;BME280;4324;42.012;24.872;2023-12-20T07:55:43;98968.50;;;5.59;100.00
8573;BME280;4324;42.012;24.872;2023-12-20T07:58:10;98980.13;;;5.66;100.00
8573;BME280;4324;42.012;24.872;2023-12-20T08:00:36;98979.06;;;5.78;100.00
8573;BME280;4324;42.012;24.872;2023-12-20T08:03:04;98990.13;;;5.82;100.00
8573;BME280;4324;42.012;24.872;2023-12-20T08:05:32;98986.84;;;5.90;100.00
8573;BME280;4324;42.012;24.872;2023-12-20T08:07:59;98971.34;;;5.87;100.00
8573;BME280;4324;42.012;24.872;2023-12-20T08:10:26;98989.38;;;6.01;100.00
8573;BME280;4324;42.012;24.872;2023-12-20T08:12:55;98970.00;;;6.02;100.00
8573;BME280;4324;42.012;24.872;2023-12-20T08:15:22;98956.97;;;6.00;100.00
8573;BME280;4324;42.012;24.872;2023-12-20T08:17:49;98957.38;;;5.96;100.00
8573;BME280;4324;42.012;24.872;2023-12-20T08:20:16;98980.50;;;6.21;100.00
8573;BME280;4324;42.012;24.872;2023-12-20T08:22:45;98963.63;;;6.24;100.00
8573;BME280;4324;42.012;24.872;2023-12-20T08:25:12;98967.47;;;6.29;100.00
8573;BME280;4324;42.012;24.872;2023-12-20T08:27:41;98984.38;;;6.46;100.00
8573;BME280;4324;42.012;24.872;2023-12-20T08:30:09;98990.84;;;6.52;100.00
8573;BME280;4324;42.012;24.872;2023-12-20T08:32:36;98964.97;;;6.47;100.00
8573;BME280;4324;42.012;24.872;2023-12-20T08:35:04;98964.69;;;6.60;100.00
8573;BME280;4324;42.012;24.872;2023-12-20T08:37:31;98954.72;;;6.54;100.00
8573;BME280;4324;42.012;24.872;2023-12-20T08:39:59;98967.28;;;6.70;100.00
8573;BME280;4324;42.012;24.872;2023-12-20T08:42:26;98952.09;;;6.64;100.00
8573;BME280;4324;42.012;24.872;2023-12-20T08:44:56;98953.16;;;6.71;100.00
8573;BME280;4324;42.012;24.872;2023-12-20T08:47:24;98902.00;;;6.46;100.00
8573;BME280;4324;42.012;24.872;2023-12-20T08:49:50;98945.25;;;6.81;100.00
8573;BME280;4324;42.012;24.872;2023-12-20T08:52:22;98937.31;;;6.90;100.00
8573;BME280;4324;42.012;24.872;2023-12-20T08:54:48;98939.63;;;7.03;100.00
8573;BME280;4324;42.012;24.872;2023-12-20T08:57:20;98926.81;;;7.18;100.00
8573;BME280;4324;42.012;24.872;2023-12-20T08:59:48;98881.66;;;7.13;100.00
8573;BME280;4324;42.012;24.872;2023-12-20T09:02:15;98906.03;;;7.42;100.00
8573;BME280;4324;42.012;24.872;2023-12-20T09:04:43;98895.03;;;7.47;100.00
8573;BME280;4324;42.012;24.872;2023-12-20T09:07:21;98903.09;;;7.63;100.00
8573;BME280;4324;42.012;24.872;2023-12-20T09:09:48;98874.44;;;7.60;100.00
8573;BME280;4324;42.012;24.872;2023-12-20T09:12:15;98831.81;;;7.47;99.93
8573;BME280;4324;42.012;24.872;2023-12-20T09:14:43;98830.88;;;7.56;99.82
8573;BME280;4324;42.012;24.872;2023-12-20T09:17:10;98871.19;;;7.84;99.87
8573;BME280;4324;42.012;24.872;2023-12-20T09:19:38;98865.59;;;7.87;99.69
8573;BME280;4324;42.012;24.872;2023-12-20T09:22:05;98837.97;;;7.73;99.54
8573;BME280;4324;42.012;24.872;2023-12-20T09:24:33;98835.19;;;7.75;99.28
8573;BME280;4324;42.012;24.872;2023-12-20T09:26:59;98819.97;;;7.69;99.28
8573;BME280;4324;42.012;24.872;2023-12-20T09:29:26;98850.63;;;7.88;99.17
8573;BME280;4324;42.012;24.872;2023-12-20T09:31:55;98844.97;;;7.83;99.31
8573;BME280;4324;42.012;24.872;2023-12-20T09:34:23;98841.34;;;7.84;99.17
8573;BME280;4324;42.012;24.872;2023-12-20T09:36:51;98827.59;;;7.72;99.47
8573;BME280;4324;42.012;24.872;2023-12-20T09:39:19;98831.81;;;7.83;99.56
8573;BME280;4324;42.012;24.872;2023-12-20T09:41:51;98782.13;;;7.52;99.21
8573;BME280;4324;42.012;24.872;2023-12-20T09:44:23;98811.31;;;7.76;99.42
8573;BME280;4324;42.012;24.872;2023-12-20T09:46:50;98818.97;;;7.88;99.40
8573;BME280;4324;42.012;24.872;2023-12-20T09:49:19;98810.38;;;7.86;99.39
8573;BME280;4324;42.012;24.872;2023-12-20T09:51:46;98807.50;;;7.97;99.17
8573;BME280;4324;42.012;24.872;2023-12-20T09:54:14;98805.25;;;8.02;98.78
8573;BME280;4324;42.012;24.872;2023-12-20T09:56:42;98800.72;;;8.12;98.76
8573;BME280;4324;42.012;24.872;2023-12-20T09:59:09;98790.66;;;8.16;98.69
8573;BME280;4324;42.012;24.872;2023-12-20T10:01:36;98781.97;;;8.23;98.04
8573;BME280;4324;42.012;24.872;2023-12-20T10:04:06;98753.22;;;8.12;97.71
8573;BME280;4324;42.012;24.872;2023-12-20T10:06:35;98778.06;;;8.36;97.64
8573;BME280;4324;42.012;24.872;2023-12-20T10:09:02;98782.78;;;8.42;97.60
8573;BME280;4324;42.012;24.872;2023-12-20T10:11:31;98769.88;;;8.39;97.37
8573;BME280;4324;42.012;24.872;2023-12-20T10:13:59;98776.84;;;8.48;97.11
8573;BME280;4324;42.012;24.872;2023-12-20T10:16:27;98764.28;;;8.42;97.16
8573;BME280;4324;42.012;24.872;2023-12-20T10:18:54;98774.56;;;8.53;97.05
8573;BME280;4324;42.012;24.872;2023-12-20T10:21:22;98727.41;;;8.24;96.09
8573;BME280;4324;42.012;24.872;2023-12-20T10:23:51;98766.97;;;8.50;95.73
8573;BME280;4324;42.012;24.872;2023-12-20T10:26:19;98734.44;;;8.41;95.69
8573;BME280;4324;42.012;24.872;2023-12-20T10:28:50;98759.06;;;8.58;95.67
8573;BME280;4324;42.012;24.872;2023-12-20T10:31:29;98741.59;;;8.57;95.73
8573;BME280;4324;42.012;24.872;2023-12-20T10:33:57;98737.66;;;8.61;95.38
8573;BME280;4324;42.012;24.872;2023-12-20T10:36:25;98727.59;;;8.65;95.38
8573;BME280;4324;42.012;24.872;2023-12-20T10:38:55;98723.84;;;8.76;95.12
8573;BME280;4324;42.012;24.872;2023-12-20T10:41:25;98721.88;;;8.86;95.06
8573;BME280;4324;42.012;24.872;2023-12-20T10:43:56;98707.84;;;8.85;94.92
8573;BME280;4324;42.012;24.872;2023-12-20T10:46:27;98711.66;;;8.99;95.13
8573;BME280;4324;42.012;24.872;2023-12-20T10:48:56;98707.53;;;9.05;94.83
8573;BME280;4324;42.012;24.872;2023-12-20T10:51:24;98691.69;;;9.05;94.78
8573;BME280;4324;42.012;24.872;2023-12-20T10:53:55;98673.38;;;9.03;94.65
8573;BME280;4324;42.012;24.872;2023-12-20T10:56:23;98691.53;;;9.23;94.55
8573;BME280;4324;42.012;24.872;2023-12-20T10:58:50;98693.34;;;9.30;94.54
8573;BME280;4324;42.012;24.872;2023-12-20T11:01:19;98678.00;;;9.34;94.35
8573;BME280;4324;42.012;24.872;2023-12-20T11:03:49;98682.28;;;9.51;94.38
8573;BME280;4324;42.012;24.872;2023-12-20T11:06:29;98680.63;;;9.58;93.89
8573;BME280;4324;42.012;24.872;2023-12-20T11:09:10;98671.38;;;9.62;93.61
8573;BME280;4324;42.012;24.872;2023-12-20T11:14:31;98645.94;;;9.61;93.66
8573;BME280;4324;42.012;24.872;2023-12-20T11:17:07;98661.06;;;9.84;93.40
8573;BME280;4324;42.012;24.872;2023-12-20T11:19:36;98648.66;;;9.92;93.44
8573;BME280;4324;42.012;24.872;2023-12-20T11:22:04;98654.38;;;10.04;93.37
8573;BME280;4324;42.012;24.872;2023-12-20T11:24:33;98645.44;;;10.13;93.06
8573;BME280;4324;42.012;24.872;2023-12-20T11:27:03;98635.81;;;10.21;93.01
8573;BME280;4324;42.012;24.872;2023-12-20T11:29:34;98627.53;;;10.24;92.99
8573;BME280;4324;42.012;24.872;2023-12-20T11:32:02;98616.59;;;10.35;92.98
8573;BME280;4324;42.012;24.872;2023-12-20T11:34:33;98620.19;;;10.42;92.42
8573;BME280;4324;42.012;24.872;2023-12-20T11:37:02;98621.66;;;10.45;92.30
8573;BME280;4324;42.012;24.872;2023-12-20T11:39:30;98610.94;;;10.38;92.13
8573;BME280;4324;42.012;24.872;2023-12-20T11:42:04;98608.66;;;10.35;91.84
8573;BME280;4324;42.012;24.872;2023-12-20T11:44:31;98600.06;;;10.33;91.79
8573;BME280;4324;42.012;24.872;2023-12-20T11:46:58;98603.00;;;10.38;91.88
8573;BME280;4324;42.012;24.872;2023-12-20T11:49:25;98595.44;;;10.35;91.91
8573;BME280;4324;42.012;24.872;2023-12-20T11:51:54;98584.38;;;10.31;91.69
8573;BME280;4324;42.012;24.872;2023-12-20T11:54:21;98556.78;;;10.17;91.85
8573;BME280;4324;42.012;24.872;2023-12-20T11:56:49;98576.59;;;10.30;91.43
8573;BME280;4324;42.012;24.872;2023-12-20T11:59:18;98486.06;;;9.80;90.79
8573;BME280;4324;42.012;24.872;2023-12-20T12:01:48;98562.00;;;10.34;90.81
8573;BME280;4324;42.012;24.872;2023-12-20T12:04:15;98574.72;;;10.38;90.80
8573;BME280;4324;42.012;24.872;2023-12-20T12:06:43;98548.31;;;10.22;90.89
8573;BME280;4324;42.012;24.872;2023-12-20T12:09:10;98563.00;;;10.33;91.49
8573;BME280;4324;42.012;24.872;2023-12-20T12:11:37;98549.97;;;10.23;91.59
8573;BME280;4324;42.012;24.872;2023-12-20T12:14:04;98553.78;;;10.29;91.60
8573;BME280;4324;42.012;24.872;2023-12-20T12:16:33;98552.75;;;10.30;91.75
8573;BME280;4324;42.012;24.872;2023-12-20T12:19:00;98550.13;;;10.30;91.84
8573;BME280;4324;42.012;24.872;2023-12-20T12:21:27;98544.84;;;10.22;91.81
8573;BME280;4324;42.012;24.872;2023-12-20T12:23:54;98541.88;;;10.25;92.02
8573;BME280;4324;42.012;24.872;2023-12-20T12:26:21;98547.47;;;10.30;91.85
8573;BME280;4324;42.012;24.872;2023-12-20T12:28:51;98541.56;;;10.28;91.81
8573;BME280;4324;42.012;24.872;2023-12-20T12:31:18;98543.84;;;10.31;91.69
8573;BME280;4324;42.012;24.872;2023-12-20T12:33:46;98527.50;;;10.27;91.82
8573;BME280;4324;42.012;24.872;2023-12-20T12:36:13;98531.53;;;10.38;91.47
8573;BME280;4324;42.012;24.872;2023-12-20T12:38:43;98533.69;;;10.43;90.96
8573;BME280;4324;42.012;24.872;2023-12-20T12:41:12;98517.31;;;10.39;90.95
8573;BME280;4324;42.012;24.872;2023-12-20T12:43:40;98449.91;;;10.04;91.20
8573;BME280;4324;42.012;24.872;2023-12-20T12:46:10;98516.31;;;10.40;91.45
8573;BME280;4324;42.012;24.872;2023-12-20T12:48:40;98513.47;;;10.41;91.37
8573;BME280;4324;42.012;24.872;2023-12-20T12:51:09;98527.50;;;10.50;91.75
8573;BME280;4324;42.012;24.872;2023-12-20T12:53:38;98526.84;;;10.48;91.19
8573;BME280;4324;42.012;24.872;2023-12-20T12:56:06;98529.84;;;10.45;90.89
8573;BME280;4324;42.012;24.872;2023-12-20T12:58:33;98520.31;;;10.36;90.77
8573;BME280;4324;42.012;24.872;2023-12-20T13:01:00;98521.59;;;10.40;91.13
8573;BME280;4324;42.012;24.872;2023-12-20T13:03:29;98524.25;;;10.40;91.12
8573;BME280;4324;42.012;24.872;2023-12-20T13:05:55;98524.91;;;10.42;91.24
8573;BME280;4324;42.012;24.872;2023-12-20T13:08:24;98518.97;;;10.40;90.99
8573;BME280;4324;42.012;24.872;2023-12-20T13:10:51;98511.38;;;10.37;90.93
8573;BME280;4324;42.012;24.872;2023-12-20T13:13:18;98506.63;;;10.32;90.75
8573;BME280;4324;42.012;24.872;2023-12-20T13:15:45;98507.91;;;10.36;90.75
8573;BME280;4324;42.012;24.872;2023-12-20T13:18:16;98456.31;;;10.09;90.75
8573;BME280;4324;42.012;24.872;2023-12-20T13:20:44;98499.16;;;10.36;90.85
8573;BME280;4324;42.012;24.872;2023-12-20T13:23:11;98504.09;;;10.39;91.03